createdAt,value
2023-04-28T00:02:02.490Z,9.65
2023-04-28T00:04:33.652Z,15.68
2023-04-28T00:07:04.584Z,11.20
2023-04-28T00:09:35.432Z,11.43
2023-04-28T00:12:09.261Z,11.73
2023-04-28T00:14:40.848Z,12.90
2023-04-28T00:17:11.648Z,11.43
2023-04-28T00:19:42.475Z,14.45
2023-04-28T00:22:13.271Z,12.65
2023-04-28T00:24:44.073Z,14.02
2023-04-28T00:27:17.509Z,11.25
2023-04-28T00:29:48.389Z,12.40
2023-04-28T00:32:19.166Z,15.57
2023-04-28T00:34:49.922Z,11.88
2023-04-28T00:37:20.841Z,12.90
2023-04-28T00:39:51.628Z,13.05
2023-04-28T00:42:25.254Z,12.70
2023-04-28T00:44:56.089Z,14.30
2023-04-28T00:47:27.273Z,11.43
2023-04-28T00:49:59.114Z,13.02
2023-04-28T00:52:30.640Z,12.43
2023-04-28T00:55:01.983Z,13.50
2023-04-28T00:57:35.488Z,14.30
2023-04-28T01:00:06.992Z,11.90
2023-04-28T01:02:38.632Z,10.88
2023-04-28T01:05:09.991Z,10.82
2023-04-28T01:07:41.420Z,12.73
2023-04-28T01:10:13.961Z,15.48
2023-04-28T01:12:47.449Z,12.88
2023-04-28T01:15:20.865Z,12.52
2023-04-28T01:17:54.475Z,14.25
2023-04-28T01:20:25.292Z,13.20
2023-04-28T01:22:56.277Z,11.60
2023-04-28T01:25:30.112Z,12.07
2023-04-28T01:28:01.406Z,13.13
2023-04-28T01:30:32.422Z,13.95
2023-04-28T01:33:03.428Z,13.55
2023-04-28T01:35:34.380Z,13.82
2023-04-28T01:38:05.142Z,12.48
2023-04-28T01:40:39.687Z,15.45
2023-04-28T01:43:10.466Z,12.68
2023-04-28T01:45:41.406Z,16.83
2023-04-28T01:48:12.296Z,11.27
2023-04-28T01:50:43.142Z,10.93
2023-04-28T01:53:14.452Z,13.65
2023-04-28T01:55:47.899Z,18.02
2023-04-28T01:58:19.855Z,12.45
2023-04-28T02:00:51.333Z,14.18
2023-04-28T02:03:24.207Z,11.40
2023-04-28T02:05:55.106Z,11.80
2023-04-28T02:08:26.109Z,15.25
2023-04-28T02:11:01.907Z,13.00
2023-04-28T02:13:32.840Z,12.77
2023-04-28T02:16:04.564Z,15.77
2023-04-28T02:18:36.357Z,13.85
2023-04-28T02:21:13.414Z,20.73
2023-04-28T02:23:44.314Z,13.27
2023-04-28T02:26:17.803Z,14.40
2023-04-28T02:28:49.328Z,14.15
2023-04-28T02:31:20.689Z,15.90
2023-04-28T02:33:52.234Z,16.48
2023-04-28T02:36:23.039Z,13.82
2023-04-28T02:38:54.006Z,17.95
2023-04-28T02:41:27.363Z,17.77
2023-04-28T02:43:58.151Z,15.38
2023-04-28T02:46:29.195Z,15.30
2023-04-28T02:49:01.382Z,14.15
2023-04-28T02:51:33.295Z,14.88
2023-04-28T02:54:04.495Z,13.93
2023-04-28T02:56:38.078Z,15.68
2023-04-28T02:59:09.039Z,14.18
2023-04-28T03:01:40.037Z,17.85
2023-04-28T03:04:11.298Z,13.75
2023-04-28T03:06:42.584Z,20.25
2023-04-28T03:09:14.229Z,15.02
2023-04-28T03:11:47.929Z,15.32
2023-04-28T03:14:18.826Z,12.88
2023-04-28T03:16:49.902Z,16.00
2023-04-28T03:19:21.129Z,15.27
2023-04-28T03:21:52.005Z,14.68
2023-04-28T03:24:22.766Z,13.05
2023-04-28T03:26:57.396Z,19.52
2023-04-28T03:29:28.256Z,16.95
2023-04-28T03:31:59.135Z,13.73
2023-04-28T03:34:30.155Z,15.80
2023-04-28T03:37:01.098Z,16.60
2023-04-28T03:39:34.167Z,11.48
2023-04-28T03:42:08.130Z,11.05
2023-04-28T03:44:41.781Z,12.20
2023-04-28T03:47:12.668Z,14.27
2023-04-28T03:49:44.037Z,10.00
2023-04-28T03:52:14.980Z,13.57
2023-04-28T03:54:46.302Z,9.57
2023-04-28T03:57:19.765Z,8.88
2023-04-28T03:59:51.434Z,7.05
2023-04-28T04:02:22.437Z,10.85
2023-04-28T04:04:53.537Z,9.63
2023-04-28T04:07:26.443Z,10.63
2023-04-28T04:09:57.342Z,8.60
2023-04-28T04:12:30.760Z,9.10
2023-04-28T04:15:01.788Z,8.85
2023-04-28T04:17:34.100Z,6.70
2023-04-28T04:20:04.964Z,9.68
2023-04-28T04:22:36.197Z,7.85
2023-04-28T04:25:07.705Z,9.82
2023-04-28T04:27:42.071Z,10.18
2023-04-28T04:30:13.749Z,8.27
2023-04-28T04:32:44.692Z,10.35
2023-04-28T04:35:16.712Z,9.20
2023-04-28T04:37:48.028Z,8.43
2023-04-28T04:40:20.145Z,8.85
2023-04-28T04:42:56.803Z,7.15
2023-04-28T04:48:01.759Z,6.22
2023-04-28T04:50:33.516Z,8.05
2023-04-28T04:53:05.214Z,7.00
2023-04-28T04:55:37.244Z,6.05
2023-04-28T04:58:11.902Z,7.65
2023-04-28T05:01:11.605Z,6.07
2023-04-28T05:03:42.086Z,8.25
2023-04-28T05:06:12.589Z,6.55
2023-04-28T05:08:47.177Z,4.68
2023-04-28T05:11:17.539Z,4.38
2023-04-28T05:13:50.559Z,5.75
2023-04-28T05:16:21.311Z,4.63
2023-04-28T05:19:09.152Z,4.53
2023-04-28T05:21:39.484Z,4.63
2023-04-28T05:24:10.209Z,5.22
2023-04-28T05:26:40.589Z,4.05
2023-04-28T05:29:16.007Z,4.65
2023-04-28T05:31:46.696Z,4.13
2023-04-28T05:34:18.164Z,4.35
2023-04-28T05:36:49.096Z,3.40
2023-04-28T05:39:20.835Z,4.95
2023-04-28T05:41:51.411Z,4.10
2023-04-28T05:44:24.397Z,3.95
2023-04-28T05:46:54.918Z,4.68
2023-04-28T05:49:29.440Z,5.65
2023-04-28T05:51:59.704Z,4.20
2023-04-28T05:54:30.110Z,5.05
2023-04-28T05:57:01.697Z,2.50
2023-04-28T05:59:35.534Z,3.40
2023-04-28T06:02:06.036Z,2.65
2023-04-28T06:04:36.729Z,5.25
2023-04-28T06:07:07.369Z,5.28
2023-04-28T06:09:38.170Z,5.00
2023-04-28T06:12:09.233Z,5.15
2023-04-28T06:14:42.196Z,7.72
2023-04-28T06:17:13.020Z,3.53
2023-04-28T06:19:43.390Z,3.10
2023-04-28T06:22:13.854Z,5.75
2023-04-28T06:24:44.258Z,2.33
2023-04-28T06:27:18.020Z,3.40
2023-04-28T06:29:51.657Z,2.85
2023-04-28T06:32:22.068Z,2.78
2023-04-28T06:34:52.388Z,4.85
2023-04-28T06:37:22.845Z,2.78
2023-04-28T06:39:53.177Z,2.13
2023-04-28T06:42:23.577Z,2.03
2023-04-28T06:45:06.382Z,2.45
2023-04-28T06:47:40.879Z,2.72
2023-04-28T06:50:13.420Z,2.38
2023-04-28T06:52:43.762Z,4.72
2023-04-28T06:55:17.472Z,2.45
2023-04-28T06:57:48.080Z,3.28
2023-04-28T07:00:21.624Z,4.03
2023-04-28T07:02:52.083Z,4.07
2023-04-28T07:05:22.493Z,3.55
2023-04-28T07:07:52.729Z,9.00
2023-04-28T07:10:23.207Z,3.95
2023-04-28T07:12:54.209Z,2.72
2023-04-28T07:15:27.105Z,3.13
2023-04-28T07:17:57.552Z,2.00
2023-04-28T07:20:28.031Z,2.38
2023-04-28T07:22:58.297Z,1.98
2023-04-28T07:25:28.746Z,4.22
2023-04-28T07:27:59.088Z,1.40
2023-04-28T07:30:32.060Z,3.15
2023-04-28T07:33:02.791Z,3.17
2023-04-28T07:35:33.365Z,2.40
2023-04-28T07:38:03.890Z,3.70
2023-04-28T07:40:34.284Z,2.05
2023-04-28T07:43:04.846Z,2.33
2023-04-28T07:45:41.175Z,1.50
2023-04-28T07:48:12.052Z,1.80
2023-04-28T07:50:42.509Z,1.80
2023-04-28T07:53:12.864Z,2.28
2023-04-28T07:55:44.924Z,2.17
2023-04-28T07:58:15.634Z,1.70
2023-04-28T08:00:48.615Z,2.22
2023-04-28T08:03:19.249Z,1.58
2023-04-28T08:05:50.068Z,2.08
2023-04-28T08:08:20.434Z,1.52
2023-04-28T08:10:51.004Z,1.73
2023-04-28T08:13:21.456Z,1.90
2023-04-28T08:15:56.674Z,2.38
2023-04-28T08:18:28.156Z,1.60
2023-04-28T08:20:58.696Z,2.17
2023-04-28T08:23:32.115Z,1.42
2023-04-28T08:26:02.571Z,2.28
2023-04-28T08:28:34.155Z,1.08
2023-04-28T08:31:07.440Z,3.67
2023-04-28T08:33:37.900Z,2.50
2023-04-28T08:36:08.908Z,2.55
2023-04-28T08:38:39.265Z,2.72
2023-04-28T08:41:09.980Z,2.35
2023-04-28T08:43:43.011Z,2.63
2023-04-28T08:46:19.145Z,1.35
2023-04-28T08:48:49.638Z,2.05
2023-04-28T08:51:36.064Z,1.90
2023-04-28T08:56:45.366Z,2.03
2023-04-28T08:59:16.149Z,1.80
2023-04-28T09:01:51.702Z,2.25
2023-04-28T09:04:22.813Z,2.55
2023-04-28T09:06:53.480Z,2.75
2023-04-28T09:09:31.703Z,2.80
2023-04-28T09:12:05.683Z,3.42
2023-04-28T09:14:37.701Z,3.40
2023-04-28T09:17:14.737Z,2.40
2023-04-28T09:19:45.670Z,3.28
2023-04-28T09:22:26.461Z,2.80
2023-04-28T09:24:58.060Z,3.67
2023-04-28T09:27:32.183Z,2.42
2023-04-28T09:30:04.105Z,1.90
2023-04-28T09:32:37.426Z,2.47
2023-04-28T09:35:08.428Z,1.85
2023-04-28T09:37:39.081Z,1.95
2023-04-28T09:40:12.502Z,1.73
2023-04-28T09:42:44.505Z,2.33
2023-04-28T09:45:15.992Z,5.05
2023-04-28T09:47:50.213Z,3.83
2023-04-28T09:50:21.004Z,2.65
2023-04-28T09:53:00.376Z,1.98
2023-04-28T09:55:33.167Z,2.30
2023-04-28T09:58:08.937Z,1.60
2023-04-28T10:00:42.174Z,2.60
2023-04-28T10:03:18.085Z,3.53
2023-04-28T10:05:50.444Z,2.05
2023-04-28T10:08:21.916Z,1.50
2023-04-28T10:10:54.937Z,2.80
2023-04-28T10:13:27.040Z,2.63
2023-04-28T10:15:58.797Z,2.95
2023-04-28T10:18:35.425Z,4.30
2023-04-28T10:21:07.854Z,3.05
2023-04-28T10:24:03.736Z,3.83
2023-04-28T10:27:06.543Z,2.75
2023-04-28T10:29:38.366Z,6.45
2023-04-28T10:32:28.934Z,1.95
2023-04-28T10:35:38.634Z,2.20
2023-04-28T10:38:13.845Z,1.65
2023-04-28T10:40:45.736Z,2.63
2023-04-28T10:43:17.585Z,3.47
2023-04-28T10:46:05.264Z,2.55
2023-04-28T10:49:08.629Z,3.15
2023-04-28T10:51:39.501Z,2.08
2023-04-28T10:54:22.766Z,3.63
2023-04-28T10:57:21.707Z,1.90
2023-04-28T10:59:53.527Z,3.63
2023-04-28T11:02:45.082Z,3.08
2023-04-28T11:05:20.733Z,2.28
2023-04-28T11:08:34.037Z,2.85
2023-04-28T11:11:21.863Z,2.95
2023-04-28T11:13:53.773Z,2.03
2023-04-28T11:16:27.113Z,2.97
2023-04-28T11:19:05.097Z,3.33
2023-04-28T11:21:36.863Z,2.35
2023-04-28T11:24:14.094Z,3.67
2023-04-28T11:26:48.127Z,7.25
2023-04-28T11:29:18.988Z,5.32
2023-04-28T11:31:54.010Z,3.40
2023-04-28T11:34:25.769Z,2.30
2023-04-28T11:36:56.824Z,3.80
2023-04-28T11:39:32.411Z,3.63
2023-04-28T11:42:13.097Z,3.17
2023-04-28T11:44:43.921Z,3.83
2023-04-28T11:47:15.005Z,3.03
2023-04-28T11:49:47.182Z,2.65
2023-04-28T11:52:18.125Z,2.35
2023-04-28T11:54:49.057Z,4.85
2023-04-28T11:57:27.001Z,3.72
2023-04-28T12:00:15.336Z,5.57
2023-04-28T12:02:46.590Z,2.08
2023-04-28T12:05:17.821Z,2.13
2023-04-28T12:07:49.094Z,2.63
2023-04-28T12:10:20.451Z,3.97
2023-04-28T12:12:53.868Z,2.60
2023-04-28T12:15:25.765Z,2.40
2023-04-28T12:17:57.033Z,1.52
2023-04-28T12:20:41.317Z,3.40
2023-04-28T12:23:12.347Z,3.78
2023-04-28T12:25:50.247Z,2.67
2023-04-28T12:28:23.616Z,3.75
2023-04-28T12:31:06.602Z,1.80
2023-04-28T12:33:38.656Z,2.63
2023-04-28T12:36:10.370Z,6.47
2023-04-28T12:38:51.158Z,3.38
2023-04-28T12:41:22.051Z,2.17
2023-04-28T12:43:55.446Z,2.22
2023-04-28T12:46:26.297Z,3.25
2023-04-28T12:48:57.409Z,4.43
2023-04-28T12:51:29.919Z,3.90
2023-04-28T12:54:00.765Z,3.35
2023-04-28T12:56:32.119Z,2.92
2023-04-28T12:59:06.388Z,6.18
2023-04-28T13:01:37.682Z,5.28
2023-04-28T13:04:10.192Z,5.18
2023-04-28T13:06:44.338Z,3.67
2023-04-28T13:09:15.643Z,3.47
2023-04-28T13:11:47.454Z,5.45
2023-04-28T13:14:20.910Z,1.55
2023-04-28T13:16:52.077Z,5.15
2023-04-28T13:19:23.350Z,2.78
2023-04-28T13:21:54.455Z,4.00
2023-04-28T13:24:25.310Z,6.00
2023-04-28T13:26:56.140Z,3.83
2023-04-28T13:29:29.663Z,3.15
2023-04-28T13:32:00.719Z,4.78
2023-04-28T13:34:31.932Z,2.70
2023-04-28T13:37:02.867Z,4.35
2023-04-28T13:39:33.790Z,2.50
2023-04-28T13:42:06.208Z,4.07
2023-04-28T13:44:39.661Z,2.50
2023-04-28T13:47:11.196Z,2.55
2023-04-28T13:49:42.038Z,3.30
2023-04-28T13:52:12.810Z,3.33
2023-04-28T13:54:45.733Z,2.70
2023-04-28T13:57:16.762Z,4.15
2023-04-28T13:59:50.199Z,4.93
2023-04-28T14:02:21.254Z,2.90
2023-04-28T14:04:53.984Z,1.98
2023-04-28T14:07:24.897Z,3.67
2023-04-28T14:09:55.778Z,4.88
2023-04-28T14:12:27.207Z,3.28
2023-04-28T14:15:00.849Z,4.85
2023-04-28T14:17:32.825Z,2.55
2023-04-28T14:20:04.151Z,1.88
2023-04-28T14:22:35.124Z,2.83
2023-04-28T14:25:06.026Z,3.22
2023-04-28T14:27:37.012Z,1.98
2023-04-28T14:30:11.986Z,3.05
2023-04-28T14:32:42.922Z,2.10
2023-04-28T14:35:15.821Z,3.17
2023-04-28T14:37:47.361Z,1.92
2023-04-28T14:40:18.593Z,3.05
2023-04-28T14:42:49.464Z,2.20
2023-04-28T14:45:22.968Z,3.17
2023-04-28T14:47:54.206Z,1.30
2023-04-28T14:50:25.255Z,3.05
2023-04-28T14:52:56.178Z,2.20
2023-04-28T14:55:27.010Z,2.20
2023-04-28T14:57:57.832Z,2.38
2023-04-28T15:00:31.720Z,1.83
2023-04-28T15:03:02.684Z,5.05
2023-04-28T15:05:33.817Z,2.00
2023-04-28T15:08:04.667Z,2.97
2023-04-28T15:10:41.524Z,2.88
2023-04-28T15:15:45.736Z,2.63
2023-04-28T15:18:16.551Z,3.40
2023-04-28T15:20:47.561Z,2.92
2023-04-28T15:23:20.090Z,4.85
2023-04-28T15:25:53.770Z,4.80
2023-04-28T15:28:25.190Z,4.25
2023-04-28T15:30:58.675Z,6.68
2023-04-28T15:33:29.530Z,4.65
2023-04-28T15:36:00.915Z,4.60
2023-04-28T15:38:32.032Z,6.30
2023-04-28T15:41:02.910Z,4.55
2023-04-28T15:43:33.841Z,4.78
2023-04-28T15:46:09.624Z,3.53
2023-04-28T15:48:41.088Z,7.90
2023-04-28T15:51:12.969Z,7.05
2023-04-28T15:53:43.917Z,5.53
2023-04-28T15:56:15.091Z,6.55
2023-04-28T15:58:48.057Z,5.63
2023-04-28T16:01:22.275Z,7.00
2023-04-28T16:03:53.417Z,4.05
2023-04-28T16:06:24.982Z,4.00
2023-04-28T16:08:57.207Z,4.80
2023-04-28T16:11:28.130Z,7.47
2023-04-28T16:13:58.969Z,7.30
2023-04-28T16:16:32.559Z,5.85
2023-04-28T16:19:03.469Z,5.13
2023-04-28T16:21:34.555Z,5.47
2023-04-28T16:24:05.988Z,6.05
2023-04-28T16:26:37.016Z,5.13
2023-04-28T16:29:08.012Z,5.47
2023-04-28T16:31:41.459Z,5.28
2023-04-28T16:34:12.420Z,4.15
2023-04-28T16:36:43.249Z,5.45
2023-04-28T16:39:14.088Z,5.32
2023-04-28T16:41:44.971Z,3.85
2023-04-28T16:44:16.108Z,7.53
2023-04-28T16:46:51.498Z,5.78
2023-04-28T16:49:22.656Z,3.88
2023-04-28T16:52:00.857Z,4.47
2023-04-28T16:54:32.248Z,5.05
2023-04-28T16:57:05.438Z,4.63
2023-04-28T16:59:36.323Z,3.38
2023-04-28T17:02:09.876Z,4.40
2023-04-28T17:04:41.067Z,3.85
2023-04-28T17:07:12.044Z,4.30
2023-04-28T17:09:42.957Z,4.20
2023-04-28T17:12:13.944Z,6.18
2023-04-28T17:14:44.772Z,5.22
2023-04-28T17:17:18.884Z,5.63
2023-04-28T17:19:50.150Z,7.32
2023-04-28T17:22:21.214Z,6.22
2023-04-28T17:24:52.058Z,5.72
2023-04-28T17:27:23.066Z,7.32
2023-04-28T17:29:54.410Z,5.90
2023-04-28T17:32:31.135Z,8.13
2023-04-28T17:35:02.181Z,7.10
2023-04-28T17:37:34.947Z,4.55
2023-04-28T17:40:06.163Z,6.10
2023-04-28T17:42:37.036Z,4.43
2023-04-28T17:45:08.922Z,4.85
2023-04-28T17:47:42.466Z,5.40
2023-04-28T17:50:14.157Z,7.60
2023-04-28T17:52:45.452Z,7.03
2023-04-28T17:55:16.560Z,4.28
2023-04-28T17:57:47.600Z,5.05
2023-04-28T18:00:18.860Z,5.38
2023-04-28T18:02:52.897Z,5.63
2023-04-28T18:05:24.818Z,5.53
2023-04-28T18:07:55.875Z,4.38
2023-04-28T18:10:28.502Z,6.90
2023-04-28T18:13:02.701Z,6.35
2023-04-28T18:15:33.585Z,4.20
2023-04-28T18:18:07.114Z,5.90
2023-04-28T18:20:37.968Z,5.18
2023-04-28T18:23:09.872Z,5.20
2023-04-28T18:25:41.434Z,5.68
2023-04-28T18:28:12.425Z,7.70
2023-04-28T18:30:40.485Z,8.68
2023-04-28T18:33:14.050Z,4.85
2023-04-28T18:35:45.113Z,5.18
2023-04-28T18:38:16.111Z,5.78
2023-04-28T18:40:47.080Z,6.88
2023-04-28T18:43:17.999Z,5.25
2023-04-28T18:45:48.867Z,8.18
2023-04-28T18:48:22.903Z,5.30
2023-04-28T18:50:54.169Z,5.82
2023-04-28T18:53:25.068Z,5.25
2023-04-28T18:55:58.413Z,6.00
2023-04-28T18:58:29.342Z,5.18
2023-04-28T19:01:00.327Z,6.18
2023-04-28T19:03:34.047Z,5.97
2023-04-28T19:06:05.160Z,6.65
2023-04-28T19:08:39.225Z,5.93
2023-04-28T19:11:10.583Z,5.00
2023-04-28T19:13:41.705Z,6.32
2023-04-28T19:16:13.068Z,6.40
2023-04-28T19:18:46.548Z,6.03
2023-04-28T19:21:17.376Z,5.45
2023-04-28T19:23:48.664Z,5.20
2023-04-28T19:26:19.684Z,6.32
2023-04-28T19:28:50.692Z,7.35
2023-04-28T19:31:21.695Z,5.80
2023-04-28T19:33:55.170Z,5.15
2023-04-28T19:36:25.990Z,5.93
2023-04-28T19:38:56.784Z,6.18
2023-04-28T19:41:28.140Z,6.35
2023-04-28T19:43:58.990Z,5.75
2023-04-28T19:46:29.897Z,8.10
2023-04-28T19:49:03.316Z,5.82
2023-04-28T19:51:34.199Z,10.13
2023-04-28T19:54:05.013Z,7.07
2023-04-28T19:56:37.475Z,7.22
2023-04-28T19:59:08.297Z,6.82
2023-04-28T20:01:42.115Z,6.53
2023-04-28T20:04:15.962Z,4.32
2023-04-28T20:06:48.134Z,7.03
2023-04-28T20:09:19.123Z,6.90
2023-04-28T20:11:49.958Z,7.05
2023-04-28T20:14:22.009Z,6.15
2023-04-28T20:16:52.881Z,7.43
2023-04-28T20:19:26.932Z,6.55
2023-04-28T20:21:57.780Z,6.93
2023-04-28T20:24:28.729Z,7.68
2023-04-28T20:26:59.757Z,7.38
2023-04-28T20:29:31.782Z,8.02
2023-04-28T20:32:02.765Z,6.18
2023-04-28T20:34:36.655Z,6.63
2023-04-28T20:37:08.533Z,6.90
2023-04-28T20:39:39.462Z,8.05
2023-04-28T20:42:10.455Z,8.15
2023-04-28T20:44:41.735Z,6.78
2023-04-28T20:47:12.605Z,6.20
2023-04-28T20:49:47.833Z,6.35
2023-04-28T20:52:19.627Z,6.65
2023-04-28T20:54:52.704Z,7.90
2023-04-28T20:57:24.741Z,6.38
2023-04-28T20:59:55.808Z,9.38
2023-04-28T21:02:26.815Z,8.48
2023-04-28T21:05:00.474Z,7.18
2023-04-28T21:07:31.504Z,7.10
2023-04-28T21:10:02.538Z,5.57
2023-04-28T21:12:33.409Z,7.90
2023-04-28T21:15:04.569Z,6.25
2023-04-28T21:17:35.506Z,6.15
2023-04-28T21:20:10.141Z,7.05
2023-04-28T21:22:41.058Z,5.00
2023-04-28T21:25:12.768Z,5.38
2023-04-28T21:27:43.928Z,5.43
2023-04-28T21:30:15.589Z,4.88
2023-04-28T21:32:46.529Z,4.32
2023-04-28T21:35:20.098Z,4.65
2023-04-28T21:37:51.023Z,5.30
2023-04-28T21:40:22.102Z,4.30
2023-04-28T21:42:52.942Z,4.90
2023-04-28T21:45:23.876Z,4.15
2023-04-28T21:47:54.778Z,4.57
2023-04-28T21:50:28.429Z,4.15
2023-04-28T21:52:59.515Z,4.03
2023-04-28T21:55:30.407Z,5.72
2023-04-28T21:58:01.222Z,4.43
2023-04-28T22:00:32.254Z,4.63
2023-04-28T22:03:03.361Z,4.15
2023-04-28T22:05:38.836Z,3.90
2023-04-28T22:08:12.908Z,4.07
2023-04-28T22:10:46.835Z,3.60
2023-04-28T22:13:18.655Z,3.83
2023-04-28T22:15:50.146Z,4.07
2023-04-28T22:18:21.014Z,4.95
2023-04-28T22:20:54.673Z,3.72
2023-04-28T22:23:25.852Z,4.88
2023-04-28T22:25:57.243Z,4.70
2023-04-28T22:28:29.037Z,6.63
2023-04-28T22:31:01.465Z,5.38
2023-04-28T22:33:33.360Z,3.97
2023-04-28T22:36:08.051Z,4.30
2023-04-28T22:38:39.242Z,4.93
2023-04-28T22:41:10.036Z,4.10
2023-04-28T22:43:41.190Z,4.53
2023-04-28T22:46:12.391Z,4.40
2023-04-28T22:48:43.348Z,4.75
2023-04-28T22:51:16.892Z,4.80
2023-04-28T22:53:47.741Z,5.28
2023-04-28T22:56:19.231Z,5.28
2023-04-28T22:58:50.066Z,6.13
2023-04-28T23:01:20.885Z,4.40
2023-04-28T23:03:51.834Z,3.53
2023-04-28T23:06:25.484Z,3.28
2023-04-28T23:08:56.409Z,3.85
2023-04-28T23:11:27.752Z,2.70
2023-04-28T23:13:59.065Z,2.80
2023-04-28T23:16:29.990Z,3.13
2023-04-28T23:19:00.990Z,4.35
2023-04-28T23:21:34.498Z,1.80
2023-04-28T23:24:05.994Z,2.30
2023-04-28T23:26:37.016Z,2.42
2023-04-28T23:29:09.096Z,2.28
2023-04-28T23:31:40.693Z,2.28
2023-04-28T23:34:11.871Z,1.98
2023-04-28T23:36:45.408Z,2.45
2023-04-28T23:39:16.570Z,1.95
2023-04-28T23:41:47.476Z,3.15
2023-04-28T23:44:18.394Z,3.63
2023-04-28T23:46:49.503Z,3.25
2023-04-28T23:49:21.295Z,3.05
2023-04-28T23:51:54.818Z,3.40
2023-04-28T23:54:25.744Z,3.33
2023-04-28T23:56:57.244Z,4.55
2023-04-28T23:59:28.273Z,3.05
